• pl
  • eng

Awiacja
NEWS
last updated: 12.09.2019 14:49<\/div>
Dear users,
We would like to inform you that from September 2nd a test form of the GAFOR forecast is available on our webpage. Please send your comments and suggestions to gafor@imgw.pl that will contribute to product development.
METAR messages from military airports. 15:01 18.09.2020

METAR EPCE 181300Z 29010KT CAVOK 16/05
Q1028 RMK 160 049 0/0=

METAR EPDA 181300Z 28007KT 230V310 CAVOK 16/07
Q1029 RMK 155 055 0/0=

METAR EPDE 181300Z 29010KT 9999 NSC 18/06 Q1026 RMK 183 045 3/3=

METAR EPIR 181300Z 27012KT 9999 NSC 19/05 Q1028 RMK 186 041 4/4=

METAR EPKS 181300Z NIL=

METAR EPLK 181300Z 33008KT 290V030 9999 NSC 17/03 Q1028 RMK 174
037 4/4=

METAR EPLY 181300Z NIL=

METAR EPMB 181300Z NIL=

METAR EPMI 181300Z NIL=

METAR EPMM 181300Z NIL=

METAR EPNA 181300Z NIL=

METAR EPOK 181300Z 28011KT 260V320 CAVOK 18/05
Q1027 RMK 175 044 0/0=

METAR EPPR 181300Z 29006KT 9999 NSC 19/04 Q1027 RMK 189 038 0/0=

METAR EPPW 181300Z 32008KT 9999 NSC 18/04 Q1029 RMK 181 039 3/3=

METAR EPRA 181300Z NIL=

METAR EPSN 181300Z NIL=

METAR EPTM 181300Z 35008KT 9999 NSC 17/02 Q1028 RMK 167 037 5/5=
Awiacja.imgw.pl jest pogodowym serwisem informacyjnym
Instytutu Meteorologii i Gospodarki Wodnej Państwowego Instytutu Badawczego.
Copyright IMGW PIB 2009-2019© Wszelkie prawa zastrzeżone.